sensor_id;sensor_type;location;lat;lon;timestamp;temperature;humidity
6146;DHT22;3104;50.348;7.620;2023-05-02T00:00:48;11.50;99.90
6146;DHT22;3104;50.348;7.620;2023-05-02T00:03:14;11.50;99.90
6146;DHT22;3104;50.348;7.620;2023-05-02T00:05:41;11.40;99.90
6146;DHT22;3104;50.348;7.620;2023-05-02T00:08:06;11.30;99.90
6146;DHT22;3104;50.348;7.620;2023-05-02T00:10:33;11.60;99.90
6146;DHT22;3104;50.348;7.620;2023-05-02T00:12:58;11.70;99.90
6146;DHT22;3104;50.348;7.620;2023-05-02T00:15:24;11.30;99.90
6146;DHT22;3104;50.348;7.620;2023-05-02T00:17:51;11.50;99.90
6146;DHT22;3104;50.348;7.620;2023-05-02T00:20:17;11.30;99.90
6146;DHT22;3104;50.348;7.620;2023-05-02T00:22:43;11.40;99.90
6146;DHT22;3104;50.348;7.620;2023-05-02T00:25:08;11.60;99.90
6146;DHT22;3104;50.348;7.620;2023-05-02T00:27:34;11.20;99.90
6146;DHT22;3104;50.348;7.620;2023-05-02T00:30:00;11.00;99.90
6146;DHT22;3104;50.348;7.620;2023-05-02T00:32:26;11.30;99.90
6146;DHT22;3104;50.348;7.620;2023-05-02T00:34:52;11.40;99.90
6146;DHT22;3104;50.348;7.620;2023-05-02T00:37:18;11.50;99.90
6146;DHT22;3104;50.348;7.620;2023-05-02T00:39:44;11.50;99.90
6146;DHT22;3104;50.348;7.620;2023-05-02T00:42:10;11.40;99.90
6146;DHT22;3104;50.348;7.620;2023-05-02T00:44:35;11.20;99.90
6146;DHT22;3104;50.348;7.620;2023-05-02T00:47:01;11.10;99.90
6146;DHT22;3104;50.348;7.620;2023-05-02T00:49:27;11.00;99.90
6146;DHT22;3104;50.348;7.620;2023-05-02T00:51:53;10.90;99.90
6146;DHT22;3104;50.348;7.620;2023-05-02T00:54:19;11.10;99.90
6146;DHT22;3104;50.348;7.620;2023-05-02T00:56:44;11.20;99.90
6146;DHT22;3104;50.348;7.620;2023-05-02T00:59:12;11.20;99.90
6146;DHT22;3104;50.348;7.620;2023-05-02T01:04:48;11.30;99.90
6146;DHT22;3104;50.348;7.620;2023-05-02T01:13:06;11.20;99.90
6146;DHT22;3104;50.348;7.620;2023-05-02T01:15:34;11.10;99.90
6146;DHT22;3104;50.348;7.620;2023-05-02T01:18:01;10.90;99.90
6146;DHT22;3104;50.348;7.620;2023-05-02T01:20:29;11.10;99.90
6146;DHT22;3104;50.348;7.620;2023-05-02T01:23:01;11.40;99.90
6146;DHT22;3104;50.348;7.620;2023-05-02T01:25:36;11.60;99.90
6146;DHT22;3104;50.348;7.620;2023-05-02T01:31:00;12.10;99.90
6146;DHT22;3104;50.348;7.620;2023-05-02T01:33:28;11.60;99.90
6146;DHT22;3104;50.348;7.620;2023-05-02T01:35:55;11.40;99.90
6146;DHT22;3104;50.348;7.620;2023-05-02T01:38:22;11.00;99.90
6146;DHT22;3104;50.348;7.620;2023-05-02T01:40:50;10.80;99.90
6146;DHT22;3104;50.348;7.620;2023-05-02T01:43:18;10.90;99.90
6146;DHT22;3104;50.348;7.620;2023-05-02T01:45:47;10.70;99.90
6146;DHT22;3104;50.348;7.620;2023-05-02T01:48:14;10.60;99.90
6146;DHT22;3104;50.348;7.620;2023-05-02T01:50:42;10.60;99.90
6146;DHT22;3104;50.348;7.620;2023-05-02T01:53:10;10.50;99.90
6146;DHT22;3104;50.348;7.620;2023-05-02T01:55:40;10.40;99.90
6146;DHT22;3104;50.348;7.620;2023-05-02T01:58:08;10.40;99.90
6146;DHT22;3104;50.348;7.620;2023-05-02T02:00:35;10.30;99.90
6146;DHT22;3104;50.348;7.620;2023-05-02T02:03:04;10.30;99.90
6146;DHT22;3104;50.348;7.620;2023-05-02T02:05:32;10.30;99.90
6146;DHT22;3104;50.348;7.620;2023-05-02T02:07:59;10.30;99.90
6146;DHT22;3104;50.348;7.620;2023-05-02T02:10:25;10.30;99.90
6146;DHT22;3104;50.348;7.620;2023-05-02T02:13:02;10.40;99.90
6146;DHT22;3104;50.348;7.620;2023-05-02T02:15:33;10.50;99.90
6146;DHT22;3104;50.348;7.620;2023-05-02T02:18:03;10.50;99.90
6146;DHT22;3104;50.348;7.620;2023-05-02T02:20:29;10.50;99.90
6146;DHT22;3104;50.348;7.620;2023-05-02T02:22:59;10.40;99.90
6146;DHT22;3104;50.348;7.620;2023-05-02T02:25:26;10.50;99.90
6146;DHT22;3104;50.348;7.620;2023-05-02T02:27:52;10.60;99.90
6146;DHT22;3104;50.348;7.620;2023-05-02T02:30:18;10.60;99.90
6146;DHT22;3104;50.348;7.620;2023-05-02T02:32:43;10.70;99.90
6146;DHT22;3104;50.348;7.620;2023-05-02T02:35:09;10.90;99.90
6146;DHT22;3104;50.348;7.620;2023-05-02T02:49:23;11.00;99.90
6146;DHT22;3104;50.348;7.620;2023-05-02T02:52:10;11.10;99.90
6146;DHT22;3104;50.348;7.620;2023-05-02T02:54:50;10.90;99.90
6146;DHT22;3104;50.348;7.620;2023-05-02T02:57:22;11.00;99.90
6146;DHT22;3104;50.348;7.620;2023-05-02T03:00:06;11.00;99.90
6146;DHT22;3104;50.348;7.620;2023-05-02T03:02:34;11.00;99.90
6146;DHT22;3104;50.348;7.620;2023-05-02T03:05:01;11.10;99.90
6146;DHT22;3104;50.348;7.620;2023-05-02T03:07:29;11.10;99.90
6146;DHT22;3104;50.348;7.620;2023-05-02T03:09:54;11.30;99.90
6146;DHT22;3104;50.348;7.620;2023-05-02T03:12:20;11.10;99.90
6146;DHT22;3104;50.348;7.620;2023-05-02T03:14:46;11.10;99.90
6146;DHT22;3104;50.348;7.620;2023-05-02T03:17:12;11.10;99.90
6146;DHT22;3104;50.348;7.620;2023-05-02T03:19:37;11.10;99.90
6146;DHT22;3104;50.348;7.620;2023-05-02T03:22:03;11.10;99.90
6146;DHT22;3104;50.348;7.620;2023-05-02T03:24:29;11.10;99.90
6146;DHT22;3104;50.348;7.620;2023-05-02T03:26:56;11.30;99.90
6146;DHT22;3104;50.348;7.620;2023-05-02T03:29:23;11.30;99.90
6146;DHT22;3104;50.348;7.620;2023-05-02T03:31:49;11.20;99.90
6146;DHT22;3104;50.348;7.620;2023-05-02T03:34:15;11.40;99.90
6146;DHT22;3104;50.348;7.620;2023-05-02T03:36:41;11.30;99.90
6146;DHT22;3104;50.348;7.620;2023-05-02T03:39:06;11.30;99.90
6146;DHT22;3104;50.348;7.620;2023-05-02T03:41:32;11.10;99.90
6146;DHT22;3104;50.348;7.620;2023-05-02T03:43:57;11.20;99.90
6146;DHT22;3104;50.348;7.620;2023-05-02T03:46:23;11.20;99.90
6146;DHT22;3104;50.348;7.620;2023-05-02T03:48:49;11.10;99.90
6146;DHT22;3104;50.348;7.620;2023-05-02T03:51:15;11.10;99.90
6146;DHT22;3104;50.348;7.620;2023-05-02T03:53:40;11.00;99.90
6146;DHT22;3104;50.348;7.620;2023-05-02T03:56:06;10.90;99.90
6146;DHT22;3104;50.348;7.620;2023-05-02T03:58:33;10.90;99.90
6146;DHT22;3104;50.348;7.620;2023-05-02T04:01:00;10.90;99.90
6146;DHT22;3104;50.348;7.620;2023-05-02T04:03:26;10.90;99.90
6146;DHT22;3104;50.348;7.620;2023-05-02T04:05:52;10.80;99.90
6146;DHT22;3104;50.348;7.620;2023-05-02T04:08:18;10.80;99.90
6146;DHT22;3104;50.348;7.620;2023-05-02T04:10:44;10.90;99.90
6146;DHT22;3104;50.348;7.620;2023-05-02T04:13:09;10.90;99.90
6146;DHT22;3104;50.348;7.620;2023-05-02T04:15:36;10.90;99.90
6146;DHT22;3104;50.348;7.620;2023-05-02T04:18:01;11.00;99.90
6146;DHT22;3104;50.348;7.620;2023-05-02T04:20:28;10.90;99.90
6146;DHT22;3104;50.348;7.620;2023-05-02T04:22:53;11.00;99.90
6146;DHT22;3104;50.348;7.620;2023-05-02T04:25:19;11.00;99.90
6146;DHT22;3104;50.348;7.620;2023-05-02T04:27:45;11.10;99.90
6146;DHT22;3104;50.348;7.620;2023-05-02T04:30:11;11.10;99.90
6146;DHT22;3104;50.348;7.620;2023-05-02T04:32:37;11.20;99.90
6146;DHT22;3104;50.348;7.620;2023-05-02T04:35:03;11.40;99.90
6146;DHT22;3104;50.348;7.620;2023-05-02T04:37:29;11.30;99.90
6146;DHT22;3104;50.348;7.620;2023-05-02T04:39:55;11.20;99.90
6146;DHT22;3104;50.348;7.620;2023-05-02T04:42:20;11.10;99.90
6146;DHT22;3104;50.348;7.620;2023-05-02T04:44:47;11.20;99.90
6146;DHT22;3104;50.348;7.620;2023-05-02T04:47:13;11.10;99.90
6146;DHT22;3104;50.348;7.620;2023-05-02T04:49:38;11.20;99.90
6146;DHT22;3104;50.348;7.620;2023-05-02T04:52:04;11.10;99.90
6146;DHT22;3104;50.348;7.620;2023-05-02T04:54:32;11.30;99.90
6146;DHT22;3104;50.348;7.620;2023-05-02T04:56:57;11.20;99.90
6146;DHT22;3104;50.348;7.620;2023-05-02T04:59:23;11.30;99.90
6146;DHT22;3104;50.348;7.620;2023-05-02T05:01:49;11.40;99.90
6146;DHT22;3104;50.348;7.620;2023-05-02T05:04:15;11.40;99.90
6146;DHT22;3104;50.348;7.620;2023-05-02T05:06:40;11.40;99.90
6146;DHT22;3104;50.348;7.620;2023-05-02T05:09:06;11.30;99.90
6146;DHT22;3104;50.348;7.620;2023-05-02T05:11:31;11.50;99.90
6146;DHT22;3104;50.348;7.620;2023-05-02T05:13:57;11.40;99.90
6146;DHT22;3104;50.348;7.620;2023-05-02T05:16:22;11.40;99.90
6146;DHT22;3104;50.348;7.620;2023-05-02T05:18:48;11.30;99.90
6146;DHT22;3104;50.348;7.620;2023-05-02T05:21:14;11.30;99.90
6146;DHT22;3104;50.348;7.620;2023-05-02T05:23:39;11.30;99.90
6146;DHT22;3104;50.348;7.620;2023-05-02T05:26:14;11.50;99.90
6146;DHT22;3104;50.348;7.620;2023-05-02T05:28:40;11.30;99.90
6146;DHT22;3104;50.348;7.620;2023-05-02T05:31:07;11.30;99.90
6146;DHT22;3104;50.348;7.620;2023-05-02T05:33:33;11.30;99.90
6146;DHT22;3104;50.348;7.620;2023-05-02T05:36:12;11.40;99.90
6146;DHT22;3104;50.348;7.620;2023-05-02T05:38:39;11.30;99.90
6146;DHT22;3104;50.348;7.620;2023-05-02T05:41:05;11.20;99.90
6146;DHT22;3104;50.348;7.620;2023-05-02T05:43:32;11.30;99.90
6146;DHT22;3104;50.348;7.620;2023-05-02T05:45:58;11.30;99.90
6146;DHT22;3104;50.348;7.620;2023-05-02T05:48:23;11.20;99.90
6146;DHT22;3104;50.348;7.620;2023-05-02T05:50:49;11.50;99.90
6146;DHT22;3104;50.348;7.620;2023-05-02T05:53:17;11.50;99.90
6146;DHT22;3104;50.348;7.620;2023-05-02T05:55:43;11.50;99.90
6146;DHT22;3104;50.348;7.620;2023-05-02T05:58:09;11.30;99.90
6146;DHT22;3104;50.348;7.620;2023-05-02T06:00:36;11.30;99.90
6146;DHT22;3104;50.348;7.620;2023-05-02T06:03:02;11.30;99.90
6146;DHT22;3104;50.348;7.620;2023-05-02T06:05:28;11.30;99.90
6146;DHT22;3104;50.348;7.620;2023-05-02T06:07:54;11.20;99.90
6146;DHT22;3104;50.348;7.620;2023-05-02T06:10:20;11.30;99.90
6146;DHT22;3104;50.348;7.620;2023-05-02T06:12:46;11.20;99.90
6146;DHT22;3104;50.348;7.620;2023-05-02T06:15:11;11.20;99.90
6146;DHT22;3104;50.348;7.620;2023-05-02T06:17:37;11.20;99.90
6146;DHT22;3104;50.348;7.620;2023-05-02T06:20:02;11.10;99.90
6146;DHT22;3104;50.348;7.620;2023-05-02T06:22:28;11.20;99.90
6146;DHT22;3104;50.348;7.620;2023-05-02T06:24:54;11.00;99.90
6146;DHT22;3104;50.348;7.620;2023-05-02T06:27:20;11.20;99.90
6146;DHT22;3104;50.348;7.620;2023-05-02T06:29:45;11.20;99.90
6146;DHT22;3104;50.348;7.620;2023-05-02T06:32:11;11.20;99.90
6146;DHT22;3104;50.348;7.620;2023-05-02T06:34:37;11.30;99.90
6146;DHT22;3104;50.348;7.620;2023-05-02T06:37:02;11.20;99.90
6146;DHT22;3104;50.348;7.620;2023-05-02T06:39:28;11.10;99.90
6146;DHT22;3104;50.348;7.620;2023-05-02T06:41:56;11.00;99.90
6146;DHT22;3104;50.348;7.620;2023-05-02T06:44:22;11.00;99.90
6146;DHT22;3104;50.348;7.620;2023-05-02T06:46:48;10.90;99.90
6146;DHT22;3104;50.348;7.620;2023-05-02T06:49:14;11.10;99.90
6146;DHT22;3104;50.348;7.620;2023-05-02T06:51:40;10.80;99.90
6146;DHT22;3104;50.348;7.620;2023-05-02T06:54:05;10.80;99.90
6146;DHT22;3104;50.348;7.620;2023-05-02T06:56:31;10.90;99.90
6146;DHT22;3104;50.348;7.620;2023-05-02T06:58:57;10.80;99.90
6146;DHT22;3104;50.348;7.620;2023-05-02T07:01:22;10.90;99.90
6146;DHT22;3104;50.348;7.620;2023-05-02T07:03:48;10.80;99.90
6146;DHT22;3104;50.348;7.620;2023-05-02T07:06:14;10.90;99.90
6146;DHT22;3104;50.348;7.620;2023-05-02T07:08:40;10.90;99.90
6146;DHT22;3104;50.348;7.620;2023-05-02T07:11:05;11.00;99.90
6146;DHT22;3104;50.348;7.620;2023-05-02T07:13:31;11.00;99.90
6146;DHT22;3104;50.348;7.620;2023-05-02T07:15:57;11.10;99.90
6146;DHT22;3104;50.348;7.620;2023-05-02T07:18:22;10.90;99.90
6146;DHT22;3104;50.348;7.620;2023-05-02T07:20:48;10.90;99.90
6146;DHT22;3104;50.348;7.620;2023-05-02T07:23:14;11.00;99.90
6146;DHT22;3104;50.348;7.620;2023-05-02T07:25:40;11.00;99.90
6146;DHT22;3104;50.348;7.620;2023-05-02T07:28:05;10.90;99.90
6146;DHT22;3104;50.348;7.620;2023-05-02T07:30:31;10.90;99.90
6146;DHT22;3104;50.348;7.620;2023-05-02T07:32:57;11.00;99.90
6146;DHT22;3104;50.348;7.620;2023-05-02T07:35:22;11.00;99.90
6146;DHT22;3104;50.348;7.620;2023-05-02T07:37:48;11.00;99.90
6146;DHT22;3104;50.348;7.620;2023-05-02T07:40:14;11.00;99.90
6146;DHT22;3104;50.348;7.620;2023-05-02T07:42:39;11.20;99.90
6146;DHT22;3104;50.348;7.620;2023-05-02T07:45:06;11.30;99.90
6146;DHT22;3104;50.348;7.620;2023-05-02T07:47:32;11.30;99.90
6146;DHT22;3104;50.348;7.620;2023-05-02T07:49:57;11.40;99.90
6146;DHT22;3104;50.348;7.620;2023-05-02T07:52:23;11.40;99.90
6146;DHT22;3104;50.348;7.620;2023-05-02T07:54:49;11.70;99.90
6146;DHT22;3104;50.348;7.620;2023-05-02T07:57:15;12.00;99.90
6146;DHT22;3104;50.348;7.620;2023-05-02T07:59:40;12.10;99.90
6146;DHT22;3104;50.348;7.620;2023-05-02T08:02:06;12.00;99.90
6146;DHT22;3104;50.348;7.620;2023-05-02T08:04:33;12.00;99.90
6146;DHT22;3104;50.348;7.620;2023-05-02T08:06:58;11.90;99.90
6146;DHT22;3104;50.348;7.620;2023-05-02T08:09:25;11.90;99.90
6146;DHT22;3104;50.348;7.620;2023-05-02T08:11:50;12.20;99.90
6146;DHT22;3104;50.348;7.620;2023-05-02T08:14:16;12.40;99.90
6146;DHT22;3104;50.348;7.620;2023-05-02T08:16:42;12.50;99.90
6146;DHT22;3104;50.348;7.620;2023-05-02T08:19:07;12.40;99.90
6146;DHT22;3104;50.348;7.620;2023-05-02T08:21:33;12.10;99.90
6146;DHT22;3104;50.348;7.620;2023-05-02T08:23:59;12.00;99.90
6146;DHT22;3104;50.348;7.620;2023-05-02T08:26:26;11.80;99.90
6146;DHT22;3104;50.348;7.620;2023-05-02T08:28:53;11.70;99.90
6146;DHT22;3104;50.348;7.620;2023-05-02T08:31:19;11.80;99.90
6146;DHT22;3104;50.348;7.620;2023-05-02T08:33:45;12.00;99.90
6146;DHT22;3104;50.348;7.620;2023-05-02T08:36:15;12.20;99.90
6146;DHT22;3104;50.348;7.620;2023-05-02T08:38:44;12.30;99.90
6146;DHT22;3104;50.348;7.620;2023-05-02T08:41:11;12.30;99.90
6146;DHT22;3104;50.348;7.620;2023-05-02T08:43:39;12.30;99.90
6146;DHT22;3104;50.348;7.620;2023-05-02T08:46:06;12.40;99.90
6146;DHT22;3104;50.348;7.620;2023-05-02T08:48:34;12.60;99.90
6146;DHT22;3104;50.348;7.620;2023-05-02T08:51:02;12.70;99.90
6146;DHT22;3104;50.348;7.620;2023-05-02T08:53:30;12.90;99.90
6146;DHT22;3104;50.348;7.620;2023-05-02T08:55:56;12.90;99.90
6146;DHT22;3104;50.348;7.620;2023-05-02T08:58:24;12.90;99.90
6146;DHT22;3104;50.348;7.620;2023-05-02T09:00:50;13.20;99.90
6146;DHT22;3104;50.348;7.620;2023-05-02T09:03:21;13.90;99.90
6146;DHT22;3104;50.348;7.620;2023-05-02T09:05:51;13.90;99.90
6146;DHT22;3104;50.348;7.620;2023-05-02T09:08:22;13.70;99.90
6146;DHT22;3104;50.348;7.620;2023-05-02T09:10:48;13.60;99.90
6146;DHT22;3104;50.348;7.620;2023-05-02T09:13:35;13.40;99.90
6146;DHT22;3104;50.348;7.620;2023-05-02T09:16:01;13.70;99.90
6146;DHT22;3104;50.348;7.620;2023-05-02T09:18:32;14.20;99.90
6146;DHT22;3104;50.348;7.620;2023-05-02T09:20:59;14.60;99.90
6146;DHT22;3104;50.348;7.620;2023-05-02T09:26:17;14.90;99.90
6146;DHT22;3104;50.348;7.620;2023-05-02T09:28:51;14.20;99.90
6146;DHT22;3104;50.348;7.620;2023-05-02T09:31:21;14.00;99.90
6146;DHT22;3104;50.348;7.620;2023-05-02T09:33:48;13.90;99.90
6146;DHT22;3104;50.348;7.620;2023-05-02T09:36:18;13.70;99.90
6146;DHT22;3104;50.348;7.620;2023-05-02T09:38:45;13.90;99.90
6146;DHT22;3104;50.348;7.620;2023-05-02T09:41:11;13.80;99.90
6146;DHT22;3104;50.348;7.620;2023-05-02T09:43:38;13.40;99.90
6146;DHT22;3104;50.348;7.620;2023-05-02T09:46:08;13.10;99.90
6146;DHT22;3104;50.348;7.620;2023-05-02T09:48:56;12.80;99.90
6146;DHT22;3104;50.348;7.620;2023-05-02T09:51:23;12.90;99.90
6146;DHT22;3104;50.348;7.620;2023-05-02T09:53:50;12.70;99.90
6146;DHT22;3104;50.348;7.620;2023-05-02T09:56:16;12.80;99.90
6146;DHT22;3104;50.348;7.620;2023-05-02T09:58:42;12.90;99.90
6146;DHT22;3104;50.348;7.620;2023-05-02T10:01:17;13.00;99.90
6146;DHT22;3104;50.348;7.620;2023-05-02T10:03:46;13.50;99.90
6146;DHT22;3104;50.348;7.620;2023-05-02T10:06:12;13.70;99.90
6146;DHT22;3104;50.348;7.620;2023-05-02T10:08:38;14.10;99.90
6146;DHT22;3104;50.348;7.620;2023-05-02T10:11:06;14.10;99.90
6146;DHT22;3104;50.348;7.620;2023-05-02T10:13:35;14.40;99.90
6146;DHT22;3104;50.348;7.620;2023-05-02T10:16:04;14.40;99.90
6146;DHT22;3104;50.348;7.620;2023-05-02T10:18:51;14.10;99.90
6146;DHT22;3104;50.348;7.620;2023-05-02T10:21:25;13.90;99.90
6146;DHT22;3104;50.348;7.620;2023-05-02T10:23:54;13.90;99.90
6146;DHT22;3104;50.348;7.620;2023-05-02T10:26:21;14.10;99.90
6146;DHT22;3104;50.348;7.620;2023-05-02T10:28:48;14.00;99.90
6146;DHT22;3104;50.348;7.620;2023-05-02T10:31:14;14.30;99.90
6146;DHT22;3104;50.348;7.620;2023-05-02T10:33:41;14.30;99.90
6146;DHT22;3104;50.348;7.620;2023-05-02T10:36:08;14.30;99.90
6146;DHT22;3104;50.348;7.620;2023-05-02T10:38:35;14.10;99.90
6146;DHT22;3104;50.348;7.620;2023-05-02T10:41:07;14.40;99.90
6146;DHT22;3104;50.348;7.620;2023-05-02T10:43:35;14.50;99.90
6146;DHT22;3104;50.348;7.620;2023-05-02T10:46:02;14.70;99.90
6146;DHT22;3104;50.348;7.620;2023-05-02T10:48:28;15.00;99.90
6146;DHT22;3104;50.348;7.620;2023-05-02T10:50:55;14.70;99.90
6146;DHT22;3104;50.348;7.620;2023-05-02T10:53:30;14.50;99.90
6146;DHT22;3104;50.348;7.620;2023-05-02T10:56:25;14.60;99.90
6146;DHT22;3104;50.348;7.620;2023-05-02T10:58:52;14.70;99.90
6146;DHT22;3104;50.348;7.620;2023-05-02T11:04:00;14.70;99.90
6146;DHT22;3104;50.348;7.620;2023-05-02T11:06:27;15.10;99.90
6146;DHT22;3104;50.348;7.620;2023-05-02T11:09:38;14.80;99.90
6146;DHT22;3104;50.348;7.620;2023-05-02T11:11:41;14.80;99.90
6146;DHT22;3104;50.348;7.620;2023-05-02T11:14:07;14.40;99.90
6146;DHT22;3104;50.348;7.620;2023-05-02T11:19:28;14.40;99.90
6146;DHT22;3104;50.348;7.620;2023-05-02T11:24:44;14.70;99.90
6146;DHT22;3104;50.348;7.620;2023-05-02T11:27:41;14.50;99.90
6146;DHT22;3104;50.348;7.620;2023-05-02T11:30:09;14.10;99.90
6146;DHT22;3104;50.348;7.620;2023-05-02T11:35:21;14.50;99.90
6146;DHT22;3104;50.348;7.620;2023-05-02T11:37:54;14.60;99.90
6146;DHT22;3104;50.348;7.620;2023-05-02T11:40:20;14.40;99.90
6146;DHT22;3104;50.348;7.620;2023-05-02T11:42:46;14.60;99.90
6146;DHT22;3104;50.348;7.620;2023-05-02T11:45:12;14.50;99.90
6146;DHT22;3104;50.348;7.620;2023-05-02T11:47:37;14.50;99.90
6146;DHT22;3104;50.348;7.620;2023-05-02T11:50:06;14.50;99.90
6146;DHT22;3104;50.348;7.620;2023-05-02T11:52:37;14.80;99.90
6146;DHT22;3104;50.348;7.620;2023-05-02T11:55:09;14.90;99.90
6146;DHT22;3104;50.348;7.620;2023-05-02T11:57:36;15.30;99.90
6146;DHT22;3104;50.348;7.620;2023-05-02T12:00:02;15.40;99.90
6146;DHT22;3104;50.348;7.620;2023-05-02T12:02:38;14.80;99.90
6146;DHT22;3104;50.348;7.620;2023-05-02T12:05:05;14.90;99.90
6146;DHT22;3104;50.348;7.620;2023-05-02T12:07:39;15.10;99.90
6146;DHT22;3104;50.348;7.620;2023-05-02T12:10:07;15.20;99.90
6146;DHT22;3104;50.348;7.620;2023-05-02T12:12:33;14.80;99.90
6146;DHT22;3104;50.348;7.620;2023-05-02T12:15:07;15.10;99.90
6146;DHT22;3104;50.348;7.620;2023-05-02T12:17:36;14.50;99.90
6146;DHT22;3104;50.348;7.620;2023-05-02T12:20:03;14.40;99.90
6146;DHT22;3104;50.348;7.620;2023-05-02T12:22:30;14.50;99.90
6146;DHT22;3104;50.348;7.620;2023-05-02T12:24:56;14.90;99.90
6146;DHT22;3104;50.348;7.620;2023-05-02T12:27:22;15.00;99.90
6146;DHT22;3104;50.348;7.620;2023-05-02T12:29:48;14.90;99.90
6146;DHT22;3104;50.348;7.620;2023-05-02T12:32:14;14.60;99.90
6146;DHT22;3104;50.348;7.620;2023-05-02T12:34:44;14.90;99.90
6146;DHT22;3104;50.348;7.620;2023-05-02T12:37:10;15.20;99.90
6146;DHT22;3104;50.348;7.620;2023-05-02T12:39:42;15.30;99.10
6146;DHT22;3104;50.348;7.620;2023-05-02T12:42:26;14.90;99.90
6146;DHT22;3104;50.348;7.620;2023-05-02T12:44:52;14.50;99.90
6146;DHT22;3104;50.348;7.620;2023-05-02T12:47:19;14.50;99.90
6146;DHT22;3104;50.348;7.620;2023-05-02T12:49:56;14.10;99.90
6146;DHT22;3104;50.348;7.620;2023-05-02T12:52:47;14.10;99.90
6146;DHT22;3104;50.348;7.620;2023-05-02T12:55:24;14.10;99.90
6146;DHT22;3104;50.348;7.620;2023-05-02T13:00:27;14.30;99.90
6146;DHT22;3104;50.348;7.620;2023-05-02T13:02:52;14.30;99.90
6146;DHT22;3104;50.348;7.620;2023-05-02T13:05:19;14.40;99.90
6146;DHT22;3104;50.348;7.620;2023-05-02T13:07:45;14.70;99.90
6146;DHT22;3104;50.348;7.620;2023-05-02T13:10:11;14.50;99.90
6146;DHT22;3104;50.348;7.620;2023-05-02T13:12:38;14.70;99.90
6146;DHT22;3104;50.348;7.620;2023-05-02T13:15:05;15.10;97.20
6146;DHT22;3104;50.348;7.620;2023-05-02T13:17:31;15.20;92.80
6146;DHT22;3104;50.348;7.620;2023-05-02T13:19:57;15.00;90.30
6146;DHT22;3104;50.348;7.620;2023-05-02T13:22:23;14.70;92.40
6146;DHT22;3104;50.348;7.620;2023-05-02T13:24:49;15.00;93.20
6146;DHT22;3104;50.348;7.620;2023-05-02T13:27:15;15.70;76.60
6146;DHT22;3104;50.348;7.620;2023-05-02T13:29:43;16.10;65.60
6146;DHT22;3104;50.348;7.620;2023-05-02T13:32:08;15.30;72.20
6146;DHT22;3104;50.348;7.620;2023-05-02T13:34:34;15.50;78.10
6146;DHT22;3104;50.348;7.620;2023-05-02T13:36:59;15.60;68.70
6146;DHT22;3104;50.348;7.620;2023-05-02T13:39:25;16.10;63.80
6146;DHT22;3104;50.348;7.620;2023-05-02T13:41:50;16.40;61.00
6146;DHT22;3104;50.348;7.620;2023-05-02T13:44:16;15.80;66.90
6146;DHT22;3104;50.348;7.620;2023-05-02T13:46:42;15.20;78.80
6146;DHT22;3104;50.348;7.620;2023-05-02T13:49:07;15.00;85.10
6146;DHT22;3104;50.348;7.620;2023-05-02T13:51:33;15.00;86.50
6146;DHT22;3104;50.348;7.620;2023-05-02T13:53:59;14.80;87.80
6146;DHT22;3104;50.348;7.620;2023-05-02T13:56:25;15.00;90.80
6146;DHT22;3104;50.348;7.620;2023-05-02T13:58:51;15.10;88.50
6146;DHT22;3104;50.348;7.620;2023-05-02T14:01:16;15.00;85.20
6146;DHT22;3104;50.348;7.620;2023-05-02T14:03:42;15.20;89.90
6146;DHT22;3104;50.348;7.620;2023-05-02T14:06:08;14.80;84.90
6146;DHT22;3104;50.348;7.620;2023-05-02T14:08:34;14.90;87.60
6146;DHT22;3104;50.348;7.620;2023-05-02T14:11:00;14.90;86.40
6146;DHT22;3104;50.348;7.620;2023-05-02T14:13:26;14.80;84.30
6146;DHT22;3104;50.348;7.620;2023-05-02T14:15:52;15.40;81.30
6146;DHT22;3104;50.348;7.620;2023-05-02T14:18:18;15.60;70.50
6146;DHT22;3104;50.348;7.620;2023-05-02T14:20:44;15.60;77.10
6146;DHT22;3104;50.348;7.620;2023-05-02T14:23:10;15.10;76.90
6146;DHT22;3104;50.348;7.620;2023-05-02T14:25:35;15.40;73.70
6146;DHT22;3104;50.348;7.620;2023-05-02T14:28:02;15.00;74.90
6146;DHT22;3104;50.348;7.620;2023-05-02T14:30:28;15.10;79.10
6146;DHT22;3104;50.348;7.620;2023-05-02T14:32:53;14.90;79.90
6146;DHT22;3104;50.348;7.620;2023-05-02T14:35:19;15.00;77.30
6146;DHT22;3104;50.348;7.620;2023-05-02T14:37:45;14.90;72.20
6146;DHT22;3104;50.348;7.620;2023-05-02T14:40:11;14.70;77.60
6146;DHT22;3104;50.348;7.620;2023-05-02T14:42:41;14.80;75.20
6146;DHT22;3104;50.348;7.620;2023-05-02T14:45:08;14.80;69.60
6146;DHT22;3104;50.348;7.620;2023-05-02T14:47:34;15.20;68.20
6146;DHT22;3104;50.348;7.620;2023-05-02T14:50:01;15.00;68.20
6146;DHT22;3104;50.348;7.620;2023-05-02T14:52:27;15.10;66.60
6146;DHT22;3104;50.348;7.620;2023-05-02T14:54:53;15.50;56.20
6146;DHT22;3104;50.348;7.620;2023-05-02T14:57:18;15.30;59.70
6146;DHT22;3104;50.348;7.620;2023-05-02T14:59:44;15.20;60.50
6146;DHT22;3104;50.348;7.620;2023-05-02T15:02:10;15.30;62.50
6146;DHT22;3104;50.348;7.620;2023-05-02T15:04:36;15.30;58.50
6146;DHT22;3104;50.348;7.620;2023-05-02T15:07:02;15.20;58.70
6146;DHT22;3104;50.348;7.620;2023-05-02T15:09:27;15.30;55.30
6146;DHT22;3104;50.348;7.620;2023-05-02T15:11:53;15.30;53.40
6146;DHT22;3104;50.348;7.620;2023-05-02T15:14:19;15.40;52.10
6146;DHT22;3104;50.348;7.620;2023-05-02T15:16:45;15.20;55.50
6146;DHT22;3104;50.348;7.620;2023-05-02T15:19:11;14.60;56.00
6146;DHT22;3104;50.348;7.620;2023-05-02T15:21:36;15.00;56.40
6146;DHT22;3104;50.348;7.620;2023-05-02T15:24:02;15.70;46.60
6146;DHT22;3104;50.348;7.620;2023-05-02T15:26:28;15.60;45.40
6146;DHT22;3104;50.348;7.620;2023-05-02T15:28:54;15.60;49.80
6146;DHT22;3104;50.348;7.620;2023-05-02T15:31:20;16.00;45.70
6146;DHT22;3104;50.348;7.620;2023-05-02T15:33:46;15.70;43.50
6146;DHT22;3104;50.348;7.620;2023-05-02T15:36:12;15.40;49.40
6146;DHT22;3104;50.348;7.620;2023-05-02T15:38:37;15.50;49.00
6146;DHT22;3104;50.348;7.620;2023-05-02T15:41:11;16.00;47.70
6146;DHT22;3104;50.348;7.620;2023-05-02T15:43:36;15.80;36.60
6146;DHT22;3104;50.348;7.620;2023-05-02T15:46:02;16.10;35.30
6146;DHT22;3104;50.348;7.620;2023-05-02T15:48:31;16.00;38.10
6146;DHT22;3104;50.348;7.620;2023-05-02T15:51:00;15.70;41.00
6146;DHT22;3104;50.348;7.620;2023-05-02T15:53:27;15.90;35.60
6146;DHT22;3104;50.348;7.620;2023-05-02T15:55:53;15.60;35.40
6146;DHT22;3104;50.348;7.620;2023-05-02T15:58:19;15.80;31.40
6146;DHT22;3104;50.348;7.620;2023-05-02T16:00:45;15.90;32.30
6146;DHT22;3104;50.348;7.620;2023-05-02T16:03:11;16.30;31.70
6146;DHT22;3104;50.348;7.620;2023-05-02T16:05:38;16.00;36.10
6146;DHT22;3104;50.348;7.620;2023-05-02T16:08:04;15.70;40.60
6146;DHT22;3104;50.348;7.620;2023-05-02T16:10:30;15.30;47.00
6146;DHT22;3104;50.348;7.620;2023-05-02T16:12:56;14.70;49.90
6146;DHT22;3104;50.348;7.620;2023-05-02T16:15:22;14.40;53.70
6146;DHT22;3104;50.348;7.620;2023-05-02T16:17:49;14.20;55.60
6146;DHT22;3104;50.348;7.620;2023-05-02T16:20:18;14.00;54.40
6146;DHT22;3104;50.348;7.620;2023-05-02T16:22:45;14.00;49.80
6146;DHT22;3104;50.348;7.620;2023-05-02T16:25:12;14.40;48.40
6146;DHT22;3104;50.348;7.620;2023-05-02T16:27:38;14.80;46.30
6146;DHT22;3104;50.348;7.620;2023-05-02T16:30:04;15.20;36.60
6146;DHT22;3104;50.348;7.620;2023-05-02T16:32:30;15.00;34.40
6146;DHT22;3104;50.348;7.620;2023-05-02T16:34:55;14.90;36.90
6146;DHT22;3104;50.348;7.620;2023-05-02T16:37:21;15.00;33.30
6146;DHT22;3104;50.348;7.620;2023-05-02T16:39:46;15.20;32.50
6146;DHT22;3104;50.348;7.620;2023-05-02T16:42:12;15.00;36.50